createdAt,value
2023-05-14T00:00:33.365Z,0.02
2023-05-14T00:01:33.452Z,0.02
2023-05-14T00:02:33.771Z,0.00
2023-05-14T00:03:33.898Z,0.00
2023-05-14T00:04:33.199Z,0.02
2023-05-14T00:05:33.314Z,0.00
2023-05-14T00:06:32.522Z,0.00
2023-05-14T00:07:32.691Z,0.02
2023-05-14T00:08:32.914Z,0.00
2023-05-14T00:09:33.173Z,0.00
2023-05-14T00:10:32.370Z,0.02
2023-05-14T00:11:32.527Z,0.00
2023-05-14T00:12:32.779Z,0.00
2023-05-14T00:13:33.969Z,0.00
2023-05-14T00:14:33.168Z,0.02
2023-05-14T00:15:34.234Z,0.00
2023-05-14T00:16:32.627Z,0.00
2023-05-14T00:17:32.772Z,0.00
2023-05-14T00:18:33.032Z,0.00
2023-05-14T00:19:33.192Z,0.00
2023-05-14T00:20:32.352Z,0.00
2023-05-14T00:21:32.527Z,0.00
2023-05-14T00:22:32.952Z,0.00
2023-05-14T00:23:32.958Z,0.00
2023-05-14T00:24:33.169Z,0.02
2023-05-14T00:25:32.388Z,0.00
2023-05-14T00:26:33.558Z,0.00
2023-05-14T00:27:32.771Z,0.00
2023-05-14T00:28:33.259Z,0.02
2023-05-14T00:29:32.148Z,0.00
2023-05-14T00:30:33.308Z,0.00
2023-05-14T00:31:33.618Z,0.00
2023-05-14T00:32:32.779Z,0.00
2023-05-14T00:33:33.953Z,0.02
2023-05-14T00:34:32.169Z,0.02
2023-05-14T00:35:33.283Z,0.02
2023-05-14T00:36:32.572Z,0.00
2023-05-14T00:37:32.751Z,0.02
2023-05-14T00:38:32.963Z,0.00
2023-05-14T00:39:32.101Z,0.02
2023-05-14T00:40:33.937Z,0.00
2023-05-14T00:41:32.497Z,0.00
2023-05-14T00:42:32.854Z,0.00
2023-05-14T00:43:31.881Z,0.00
2023-05-14T00:44:32.083Z,0.00
2023-05-14T00:45:32.285Z,0.02
2023-05-14T00:46:32.618Z,0.02
2023-05-14T00:47:32.703Z,0.00
2023-05-14T00:48:31.848Z,0.02
2023-05-14T00:49:33.014Z,0.00
2023-05-14T00:50:33.303Z,0.00
2023-05-14T00:51:32.470Z,0.00
2023-05-14T00:52:32.698Z,0.00
2023-05-14T00:53:31.869Z,0.00
2023-05-14T00:54:32.999Z,0.00
2023-05-14T00:55:32.323Z,0.00
2023-05-14T00:56:33.409Z,0.00
2023-05-14T00:57:33.670Z,0.00
2023-05-14T00:58:31.897Z,0.00
2023-05-14T00:59:33.038Z,0.00
2023-05-14T01:00:32.244Z,0.00
2023-05-14T01:01:33.496Z,0.00
2023-05-14T01:02:31.735Z,0.02
2023-05-14T01:03:32.853Z,0.00
2023-05-14T01:04:32.103Z,0.00
2023-05-14T01:05:32.278Z,0.00
2023-05-14T01:06:32.508Z,0.02
2023-05-14T01:07:31.649Z,0.02
2023-05-14T01:08:31.881Z,0.00
2023-05-14T01:09:32.096Z,0.02
2023-05-14T01:10:32.319Z,0.00
2023-05-14T01:11:31.493Z,0.02
2023-05-14T01:12:31.726Z,0.02
2023-05-14T01:13:31.907Z,0.00
2023-05-14T01:14:32.166Z,0.00
2023-05-14T01:15:32.361Z,0.00
2023-05-14T01:16:32.544Z,0.00
2023-05-14T01:17:32.708Z,0.00
2023-05-14T01:18:32.904Z,0.00
2023-05-14T01:19:32.152Z,0.02
2023-05-14T01:20:32.392Z,0.02
2023-05-14T01:21:32.482Z,0.02
2023-05-14T01:22:31.797Z,0.00
2023-05-14T01:23:31.977Z,0.00
2023-05-14T01:24:32.197Z,0.02
2023-05-14T01:25:31.387Z,0.00
2023-05-14T01:26:31.667Z,0.00
2023-05-14T01:27:31.804Z,0.02
2023-05-14T01:28:32.028Z,0.00
2023-05-14T01:29:32.264Z,0.02
2023-05-14T01:30:32.468Z,0.00
2023-05-14T01:31:31.686Z,0.02
2023-05-14T01:32:32.816Z,0.02
2023-05-14T01:33:32.101Z,0.00
2023-05-14T01:34:32.231Z,0.02
2023-05-14T01:35:31.591Z,0.00
2023-05-14T01:36:32.700Z,0.00
2023-05-14T01:37:31.923Z,0.02
2023-05-14T01:38:31.135Z,0.01
2023-05-14T01:39:31.355Z,0.00
2023-05-14T01:40:31.570Z,0.02
2023-05-14T01:41:31.820Z,0.02
2023-05-14T01:42:32.025Z,0.04
2023-05-14T01:43:31.251Z,0.00
2023-05-14T01:44:31.394Z,0.02
2023-05-14T01:45:31.653Z,0.02
2023-05-14T01:46:31.979Z,0.00
2023-05-14T01:47:32.067Z,0.02
2023-05-14T01:48:31.298Z,0.00
2023-05-14T01:49:32.368Z,0.00
2023-05-14T01:50:31.602Z,0.02
2023-05-14T01:51:31.843Z,0.02
2023-05-14T01:52:31.055Z,0.00
2023-05-14T01:53:31.202Z,0.00
2023-05-14T01:54:31.439Z,0.00
2023-05-14T01:55:31.638Z,0.02
2023-05-14T01:56:31.827Z,0.00
2023-05-14T01:57:30.977Z,0.00
2023-05-14T01:58:31.262Z,0.00
2023-05-14T01:59:32.401Z,0.00
2023-05-14T02:00:32.732Z,0.00
2023-05-14T02:01:30.896Z,0.00
2023-05-14T02:02:32.001Z,0.02
2023-05-14T02:03:31.229Z,0.02
2023-05-14T02:04:31.671Z,0.02
2023-05-14T02:05:31.679Z,0.00
2023-05-14T02:06:31.900Z,0.00
2023-05-14T02:07:31.102Z,0.02
2023-05-14T02:08:32.285Z,0.02
2023-05-14T02:09:31.580Z,0.00
2023-05-14T02:10:30.887Z,0.00
2023-05-14T02:11:31.014Z,0.00
2023-05-14T02:12:31.297Z,0.00
2023-05-14T02:13:31.454Z,0.00
2023-05-14T02:14:31.619Z,0.00
2023-05-14T02:15:31.216Z,0.00
2023-05-14T02:16:31.105Z,0.02
2023-05-14T02:17:31.302Z,0.02
2023-05-14T02:18:32.445Z,0.02
2023-05-14T02:19:31.541Z,0.00
2023-05-14T02:20:31.786Z,0.01
2023-05-14T02:21:31.050Z,0.02
2023-05-14T02:22:32.206Z,0.01
2023-05-14T02:23:40.996Z,0.02
2023-05-14T02:24:31.655Z,0.00
2023-05-14T02:25:31.839Z,0.00
2023-05-14T02:26:31.077Z,0.00
2023-05-14T02:27:31.436Z,0.00
2023-05-14T02:28:30.516Z,0.00
2023-05-14T02:29:30.700Z,0.02
2023-05-14T02:30:31.915Z,0.00
2023-05-14T02:31:31.248Z,0.00
2023-05-14T02:32:31.593Z,0.02
2023-05-14T02:33:31.620Z,0.00
2023-05-14T02:34:31.823Z,0.00
2023-05-14T02:35:31.962Z,0.00
2023-05-14T02:36:31.245Z,0.00
2023-05-14T02:37:30.422Z,0.02
2023-05-14T02:38:31.659Z,0.00
2023-05-14T02:39:30.866Z,0.00
2023-05-14T02:40:32.080Z,0.00
2023-05-14T02:41:31.248Z,0.00
2023-05-14T02:42:30.535Z,0.02
2023-05-14T02:43:31.740Z,0.00
2023-05-14T02:44:31.968Z,0.01
2023-05-14T02:45:32.207Z,0.01
2023-05-14T02:46:31.534Z,0.01
2023-05-14T02:47:30.751Z,0.05
2023-05-14T02:48:31.059Z,0.01
2023-05-14T02:49:32.137Z,0.01
2023-05-14T02:50:30.457Z,0.03
2023-05-14T02:51:30.662Z,0.01
2023-05-14T02:52:30.922Z,0.02
2023-05-14T02:53:32.138Z,0.02
2023-05-14T02:54:30.433Z,0.02
2023-05-14T02:55:30.533Z,0.02
2023-05-14T02:56:30.806Z,0.02
2023-05-14T02:57:31.009Z,0.03
2023-05-14T02:58:31.232Z,0.03
2023-05-14T02:59:30.493Z,0.03
2023-05-14T03:00:30.670Z,0.04
2023-05-14T03:01:31.894Z,0.05
2023-05-14T03:02:31.154Z,0.05
2023-05-14T03:03:30.338Z,0.25
2023-05-14T03:04:30.613Z,0.12
2023-05-14T03:05:30.766Z,0.10
2023-05-14T03:06:30.919Z,0.10
2023-05-14T03:07:30.185Z,0.11
2023-05-14T03:08:30.439Z,0.14
2023-05-14T03:09:30.647Z,0.15
2023-05-14T03:10:30.927Z,0.17
2023-05-14T03:11:30.046Z,0.20
2023-05-14T03:12:31.225Z,0.23
2023-05-14T03:13:31.454Z,0.34
2023-05-14T03:14:30.750Z,0.31
2023-05-14T03:15:30.972Z,0.39
2023-05-14T03:16:30.256Z,0.42
2023-05-14T03:17:31.360Z,0.49
2023-05-14T03:18:31.604Z,0.58
2023-05-14T03:19:30.746Z,0.67
2023-05-14T03:20:31.092Z,0.78
2023-05-14T03:21:30.334Z,0.90
2023-05-14T03:22:31.479Z,1.05
2023-05-14T03:23:31.693Z,1.22
2023-05-14T03:24:30.869Z,1.44
2023-05-14T03:25:31.069Z,1.68
2023-05-14T03:26:30.393Z,1.96
2023-05-14T03:27:30.591Z,2.29
2023-05-14T03:28:29.750Z,2.65
2023-05-14T03:29:29.960Z,3.04
2023-05-14T03:30:30.247Z,3.47
2023-05-14T03:31:31.405Z,3.97
2023-05-14T03:32:30.736Z,4.44
2023-05-14T03:33:29.794Z,4.98
2023-05-14T03:34:30.996Z,5.59
2023-05-14T03:35:31.206Z,6.22
2023-05-14T03:36:30.462Z,6.88
2023-05-14T03:37:30.616Z,7.62
2023-05-14T03:38:29.903Z,8.37
2023-05-14T03:39:30.073Z,9.21
2023-05-14T03:40:30.317Z,10.10
2023-05-14T03:41:30.482Z,11.05
2023-05-14T03:42:30.672Z,12.07
2023-05-14T03:43:29.941Z,13.24
2023-05-14T03:44:30.147Z,14.44
2023-05-14T03:45:31.346Z,15.79
2023-05-14T03:46:31.560Z,17.27
2023-05-14T03:47:30.760Z,18.84
2023-05-14T03:48:31.005Z,20.53
2023-05-14T03:49:30.291Z,22.31
2023-05-14T03:50:29.402Z,24.14
2023-05-14T03:51:29.692Z,26.02
2023-05-14T03:52:29.856Z,27.99
2023-05-14T03:53:30.097Z,30.02
2023-05-14T03:54:30.413Z,32.19
2023-05-14T03:55:29.476Z,34.44
2023-05-14T03:56:29.786Z,36.73
2023-05-14T03:57:29.911Z,39.19
2023-05-14T03:58:30.131Z,41.79
2023-05-14T03:59:29.435Z,44.43
2023-05-14T04:00:29.539Z,47.31
2023-05-14T04:01:30.764Z,50.24
2023-05-14T04:02:30.028Z,53.26
2023-05-14T04:03:31.589Z,56.44
2023-05-14T04:04:30.395Z,59.83
2023-05-14T04:05:29.782Z,63.27
2023-05-14T04:06:30.829Z,66.95
2023-05-14T04:07:30.025Z,70.61
2023-05-14T04:08:30.176Z,74.28
2023-05-14T04:09:30.418Z,77.87
2023-05-14T04:10:30.682Z,81.53
2023-05-14T04:11:29.942Z,85.29
2023-05-14T04:12:30.071Z,88.83
2023-05-14T04:13:30.193Z,92.62
2023-05-14T04:14:30.383Z,96.10
2023-05-14T04:15:29.688Z,100.02
2023-05-14T04:16:30.845Z,104.03
2023-05-14T04:17:29.080Z,108.10
2023-05-14T04:18:29.384Z,112.14
2023-05-14T04:19:29.462Z,116.20
2023-05-14T04:20:29.725Z,120.37
2023-05-14T04:21:29.865Z,124.96
2023-05-14T04:22:29.064Z,129.02
2023-05-14T04:23:30.242Z,133.33
2023-05-14T04:24:30.454Z,138.07
2023-05-14T04:25:29.707Z,142.54
2023-05-14T04:26:29.927Z,147.20
2023-05-14T04:27:29.106Z,151.61
2023-05-14T04:28:29.390Z,156.40
2023-05-14T04:29:30.491Z,163.74
2023-05-14T04:30:30.735Z,168.44
2023-05-14T04:31:29.940Z,173.23
2023-05-14T04:32:30.114Z,177.68
2023-05-14T04:33:30.327Z,183.06
2023-05-14T04:34:30.619Z,187.92
2023-05-14T04:35:28.760Z,192.35
2023-05-14T04:36:29.113Z,197.27
2023-05-14T04:37:29.226Z,202.17
2023-05-14T04:38:30.398Z,206.95
2023-05-14T04:39:29.744Z,211.62
2023-05-14T04:40:29.811Z,216.24
2023-05-14T04:41:30.053Z,221.18
2023-05-14T04:42:30.303Z,225.99
2023-05-14T04:43:30.492Z,231.02
2023-05-14T04:44:29.660Z,235.95
2023-05-14T04:45:30.867Z,241.05
2023-05-14T04:46:30.223Z,246.41
2023-05-14T04:47:30.400Z,251.30
2023-05-14T04:48:30.472Z,256.52
2023-05-14T04:49:29.691Z,261.16
2023-05-14T04:50:29.902Z,265.57
2023-05-14T04:51:30.089Z,269.43
2023-05-14T04:52:30.270Z,274.09
2023-05-14T04:53:29.520Z,279.23
2023-05-14T04:54:28.831Z,284.32
2023-05-14T04:55:29.922Z,289.95
2023-05-14T04:56:30.222Z,294.84
2023-05-14T04:57:30.366Z,300.46
2023-05-14T04:58:29.558Z,306.01
2023-05-14T04:59:29.786Z,311.41
2023-05-14T05:00:29.040Z,316.39
2023-05-14T05:01:30.255Z,321.53
2023-05-14T05:02:28.473Z,327.12
2023-05-14T05:03:29.774Z,333.43
2023-05-14T05:04:28.852Z,340.43
2023-05-14T05:05:29.089Z,363.72
2023-05-14T05:06:30.273Z,370.45
2023-05-14T05:07:28.534Z,375.99
2023-05-14T05:08:28.736Z,381.39
2023-05-14T05:09:28.991Z,386.33
2023-05-14T05:10:30.169Z,391.04
2023-05-14T05:11:28.373Z,395.35
2023-05-14T05:12:29.588Z,400.64
2023-05-14T05:13:28.904Z,404.83
2023-05-14T05:14:30.057Z,408.55
2023-05-14T05:15:29.267Z,413.13
2023-05-14T05:16:29.687Z,416.55
2023-05-14T05:17:29.669Z,420.77
2023-05-14T05:18:28.916Z,425.02
2023-05-14T05:19:39.697Z,429.22
2023-05-14T05:20:29.237Z,432.70
2023-05-14T05:21:29.438Z,436.37
2023-05-14T05:22:28.671Z,439.79
2023-05-14T05:23:28.868Z,443.60
2023-05-14T05:24:29.075Z,448.01
2023-05-14T05:25:29.913Z,452.28
2023-05-14T05:26:29.428Z,455.21
2023-05-14T05:27:28.673Z,458.98
2023-05-14T05:28:29.882Z,462.09
2023-05-14T05:29:30.062Z,464.99
2023-05-14T05:30:29.229Z,469.39
2023-05-14T05:31:28.564Z,472.56
2023-05-14T05:32:29.674Z,476.50
2023-05-14T05:33:28.844Z,480.62
2023-05-14T05:34:28.101Z,483.79
2023-05-14T05:35:29.188Z,486.90
2023-05-14T05:36:28.451Z,491.18
2023-05-14T05:37:28.722Z,494.64
2023-05-14T05:38:28.846Z,497.41
2023-05-14T05:39:30.108Z,500.72
2023-05-14T05:40:28.297Z,503.42
2023-05-14T05:41:28.642Z,505.97
2023-05-14T05:42:28.620Z,507.83
2023-05-14T05:43:28.823Z,510.95
2023-05-14T05:44:27.958Z,514.87
2023-05-14T05:45:28.275Z,518.50
2023-05-14T05:46:28.388Z,521.14
2023-05-14T05:47:29.556Z,523.67
2023-05-14T05:48:29.737Z,525.91
2023-05-14T05:49:28.008Z,528.86
2023-05-14T05:50:28.162Z,531.82
2023-05-14T05:51:29.388Z,534.66
2023-05-14T05:52:29.594Z,537.58
2023-05-14T05:53:28.724Z,540.72
2023-05-14T05:54:28.894Z,543.17
2023-05-14T05:55:29.138Z,546.78
2023-05-14T05:56:29.348Z,549.64
2023-05-14T05:57:28.581Z,553.39
2023-05-14T05:58:27.753Z,555.85
2023-05-14T05:59:27.958Z,559.86
2023-05-14T06:00:29.278Z,563.51
2023-05-14T06:01:28.364Z,566.48
2023-05-14T06:02:28.712Z,569.67
2023-05-14T06:03:28.723Z,572.19
2023-05-14T06:04:28.917Z,574.54
2023-05-14T06:05:29.149Z,577.62
2023-05-14T06:06:29.436Z,581.11
2023-05-14T06:07:29.568Z,583.58
2023-05-14T06:08:28.637Z,586.90
2023-05-14T06:09:28.845Z,589.86
2023-05-14T06:10:28.187Z,593.94
2023-05-14T06:11:29.271Z,597.56
2023-05-14T06:12:29.481Z,601.12
2023-05-14T06:13:28.590Z,604.90
2023-05-14T06:14:27.820Z,607.52
2023-05-14T06:15:29.047Z,610.96
2023-05-14T06:16:29.233Z,614.56
2023-05-14T06:17:29.423Z,617.64
2023-05-14T06:18:27.662Z,620.01
2023-05-14T06:19:27.798Z,622.29
2023-05-14T06:20:29.015Z,624.82
2023-05-14T06:21:29.432Z,627.28
2023-05-14T06:22:28.414Z,629.00
2023-05-14T06:23:28.531Z,632.01
2023-05-14T06:24:27.789Z,634.50
2023-05-14T06:25:29.018Z,636.61
2023-05-14T06:26:28.098Z,639.81
2023-05-14T06:27:29.299Z,642.20
2023-05-14T06:28:28.465Z,645.13
2023-05-14T06:29:27.767Z,648.35
2023-05-14T06:30:29.353Z,651.15
2023-05-14T06:31:29.038Z,655.37
2023-05-14T06:32:29.271Z,659.87
2023-05-14T06:33:28.385Z,662.26
2023-05-14T06:34:28.571Z,664.66
2023-05-14T06:35:27.772Z,668.75
2023-05-14T06:36:28.006Z,666.85
2023-05-14T06:37:29.145Z,673.95
2023-05-14T06:38:27.290Z,671.59
2023-05-14T06:39:28.558Z,671.78
2023-05-14T06:40:27.758Z,681.21
2023-05-14T06:41:28.866Z,670.82
2023-05-14T06:42:29.182Z,650.66
2023-05-14T06:43:28.282Z,590.83
2023-05-14T06:44:28.404Z,645.07
2023-05-14T06:45:28.627Z,699.83
2023-05-14T06:46:27.844Z,708.46
2023-05-14T06:47:29.051Z,712.05
2023-05-14T06:48:27.360Z,723.14
2023-05-14T06:49:28.420Z,728.37
2023-05-14T06:50:28.653Z,733.22
2023-05-14T06:51:28.816Z,738.51
2023-05-14T06:52:28.026Z,743.81
2023-05-14T06:53:28.196Z,747.23
2023-05-14T06:54:28.491Z,751.38
2023-05-14T06:55:28.655Z,755.08
2023-05-14T06:56:27.874Z,758.48
2023-05-14T06:57:27.979Z,763.05
2023-05-14T06:58:28.135Z,766.43
2023-05-14T06:59:27.366Z,769.56
2023-05-14T07:00:27.573Z,773.45
2023-05-14T07:01:27.829Z,775.51
2023-05-14T07:02:28.948Z,727.71
2023-05-14T07:03:26.991Z,518.98
2023-05-14T07:04:28.163Z,773.49
2023-05-14T07:05:28.352Z,720.70
2023-05-14T07:06:27.694Z,780.53
2023-05-14T07:07:28.694Z,797.03
2023-05-14T07:08:26.890Z,798.99
2023-05-14T07:09:27.070Z,804.20
2023-05-14T07:10:28.269Z,805.30
2023-05-14T07:11:28.334Z,809.36
2023-05-14T07:12:28.625Z,810.06
2023-05-14T07:13:28.274Z,811.08
2023-05-14T07:14:26.921Z,811.15
2023-05-14T07:15:27.105Z,800.00
2023-05-14T07:16:27.348Z,796.10
2023-05-14T07:17:27.843Z,797.88
2023-05-14T07:18:27.778Z,792.00
2023-05-14T07:19:26.959Z,804.37
2023-05-14T07:20:27.976Z,814.61
2023-05-14T07:21:27.179Z,812.74
2023-05-14T07:22:27.341Z,820.74
2023-05-14T07:23:27.505Z,818.16
2023-05-14T07:24:26.828Z,816.71
2023-05-14T07:25:26.845Z,794.24
2023-05-14T07:26:28.025Z,813.88
2023-05-14T07:27:28.197Z,807.94
2023-05-14T07:28:27.521Z,810.65
2023-05-14T07:29:27.539Z,821.46
2023-05-14T07:30:26.989Z,821.24
2023-05-14T07:31:27.952Z,803.20
2023-05-14T07:32:28.106Z,810.27
2023-05-14T07:33:28.271Z,825.60
2023-05-14T07:34:26.489Z,841.55
2023-05-14T07:35:26.631Z,845.73
2023-05-14T07:36:27.811Z,853.14
2023-05-14T07:37:27.972Z,855.28
2023-05-14T07:38:28.175Z,860.93
2023-05-14T07:39:27.324Z,864.38
2023-05-14T07:40:26.724Z,867.95
2023-05-14T07:41:27.664Z,868.60
2023-05-14T07:42:35.872Z,871.98
2023-05-14T07:43:27.967Z,877.37
2023-05-14T07:44:28.072Z,881.94
2023-05-14T07:45:27.272Z,883.73
2023-05-14T07:46:26.406Z,887.59
2023-05-14T07:47:26.706Z,892.25
2023-05-14T07:48:27.822Z,895.64
2023-05-14T07:49:26.940Z,900.42
2023-05-14T07:50:27.092Z,900.02
2023-05-14T07:51:27.205Z,907.33
2023-05-14T07:52:26.341Z,911.37
2023-05-14T07:53:27.493Z,916.16
2023-05-14T07:54:27.682Z,920.63
2023-05-14T07:55:27.749Z,924.50
2023-05-14T07:56:27.990Z,929.04
2023-05-14T07:57:27.082Z,932.29
2023-05-14T07:58:26.245Z,937.22
2023-05-14T07:59:27.464Z,941.01
2023-05-14T08:00:27.569Z,949.95
2023-05-14T08:01:27.687Z,953.29
2023-05-14T08:02:26.890Z,955.55
2023-05-14T08:03:28.107Z,949.04
2023-05-14T08:04:26.165Z,964.78
2023-05-14T08:05:26.285Z,969.16
2023-05-14T08:06:28.035Z,971.71
2023-05-14T08:07:26.565Z,975.09
2023-05-14T08:08:26.703Z,979.77
2023-05-14T08:09:26.924Z,984.73
2023-05-14T08:10:26.296Z,992.06
2023-05-14T08:11:26.220Z,996.06
2023-05-14T08:12:27.384Z,983.59
2023-05-14T08:13:26.449Z,992.33
2023-05-14T08:14:26.695Z,992.89
2023-05-14T08:15:28.065Z,1013.65
2023-05-14T08:16:25.902Z,1024.25
2023-05-14T08:17:26.067Z,1026.89
2023-05-14T08:18:26.221Z,965.72
2023-05-14T08:19:27.416Z,1033.62
2023-05-14T08:20:27.640Z,1020.58
2023-05-14T08:21:26.588Z,1007.96
2023-05-14T08:22:26.748Z,862.19
2023-05-14T08:23:25.908Z,1036.61
2023-05-14T08:24:26.020Z,1045.01
2023-05-14T08:25:26.138Z,1057.29
2023-05-14T08:26:26.434Z,990.73
2023-05-14T08:27:26.564Z,862.90
2023-05-14T08:28:27.583Z,944.51
2023-05-14T08:29:26.788Z,1062.78
2023-05-14T08:30:26.222Z,1035.75
2023-05-14T08:31:26.094Z,1015.78
2023-05-14T08:32:26.214Z,1046.98
2023-05-14T08:33:27.321Z,1055.50
2023-05-14T08:34:26.519Z,1063.50
2023-05-14T08:35:25.756Z,1089.46
2023-05-14T08:36:25.810Z,1087.51
2023-05-14T08:37:26.946Z,965.44
2023-05-14T08:38:26.149Z,986.69
2023-05-14T08:39:26.258Z,1090.19
2023-05-14T08:40:26.799Z,1031.79
2023-05-14T08:41:25.551Z,921.33
2023-05-14T08:42:25.782Z,1133.21
2023-05-14T08:43:25.876Z,1118.09
2023-05-14T08:44:26.046Z,1142.59
2023-05-14T08:45:26.170Z,1062.95
2023-05-14T08:46:26.366Z,1124.13
2023-05-14T08:47:27.461Z,1120.10
2023-05-14T08:48:25.647Z,970.97
2023-05-14T08:49:25.680Z,1165.48
2023-05-14T08:50:25.981Z,1099.11
2023-05-14T08:51:25.983Z,1170.97
2023-05-14T08:52:26.089Z,1174.85
2023-05-14T08:53:26.244Z,1184.11
2023-05-14T08:54:26.365Z,1185.03
2023-05-14T08:55:27.457Z,1192.38
2023-05-14T08:56:25.618Z,694.72
2023-05-14T08:57:25.735Z,1191.65
2023-05-14T08:58:25.964Z,1196.91
2023-05-14T08:59:26.030Z,1202.27
2023-05-14T09:00:26.406Z,1205.79
2023-05-14T09:01:27.351Z,1217.84
2023-05-14T09:02:26.529Z,1226.18
2023-05-14T09:03:25.719Z,1141.89
2023-05-14T09:04:25.730Z,1227.86
2023-05-14T09:05:25.855Z,1237.43
2023-05-14T09:06:26.011Z,1238.35
2023-05-14T09:07:26.052Z,1230.51
2023-05-14T09:08:26.220Z,1233.25
2023-05-14T09:09:25.308Z,1238.05
2023-05-14T09:10:25.868Z,1257.50
2023-05-14T09:11:25.678Z,1271.19
2023-05-14T09:12:26.357Z,1271.37
2023-05-14T09:13:28.124Z,1266.83
2023-05-14T09:14:26.168Z,1271.81
2023-05-14T09:15:37.165Z,1272.49
2023-05-14T09:16:25.290Z,1272.43
2023-05-14T09:17:25.480Z,1275.75
2023-05-14T09:18:25.569Z,1283.00
2023-05-14T09:19:25.769Z,1292.42
2023-05-14T09:20:26.209Z,1292.66
2023-05-14T09:21:26.090Z,1298.18
2023-05-14T09:22:25.130Z,629.34
2023-05-14T09:23:25.302Z,702.63
2023-05-14T09:24:25.410Z,1320.46
2023-05-14T09:25:25.595Z,918.91
2023-05-14T09:26:25.747Z,700.84
2023-05-14T09:27:25.919Z,1364.39
2023-05-14T09:28:25.089Z,1380.09
2023-05-14T09:29:25.972Z,1379.25
2023-05-14T09:30:26.423Z,1382.22
2023-05-14T09:31:26.490Z,1387.20
2023-05-14T09:32:25.659Z,1419.29
2023-05-14T09:33:26.147Z,791.48
2023-05-14T09:34:25.935Z,1014.21
2023-05-14T09:35:26.193Z,662.17
2023-05-14T09:36:25.309Z,732.26
2023-05-14T09:37:25.649Z,666.85
2023-05-14T09:38:25.828Z,685.44
2023-05-14T09:39:25.047Z,685.05
2023-05-14T09:40:27.293Z,752.26
2023-05-14T09:41:26.237Z,1452.06
2023-05-14T09:42:25.484Z,703.18
2023-05-14T09:43:25.636Z,655.55
2023-05-14T09:44:24.791Z,672.90
2023-05-14T09:45:25.073Z,754.05
2023-05-14T09:46:25.185Z,740.77
2023-05-14T09:47:25.509Z,667.24
2023-05-14T09:48:25.685Z,702.36
2023-05-14T09:49:26.773Z,719.58
2023-05-14T09:50:26.112Z,714.79
2023-05-14T09:51:25.205Z,708.15
2023-05-14T09:52:26.197Z,710.43
2023-05-14T09:53:25.375Z,760.36
2023-05-14T09:54:25.585Z,1165.24
2023-05-14T09:55:24.712Z,1466.96
2023-05-14T09:56:24.882Z,1465.47
2023-05-14T09:57:25.116Z,1459.98
2023-05-14T09:58:25.285Z,1455.29
2023-05-14T09:59:25.419Z,1454.64
2023-05-14T10:00:24.793Z,1458.22
2023-05-14T10:01:28.848Z,1461.98
2023-05-14T10:02:24.904Z,1471.11
2023-05-14T10:03:25.117Z,1493.46
2023-05-14T10:04:25.267Z,1521.77
2023-05-14T10:05:25.585Z,1559.74
2023-05-14T10:06:24.566Z,1077.71
2023-05-14T10:07:24.740Z,1533.27
2023-05-14T10:08:24.882Z,1605.22
2023-05-14T10:09:25.124Z,1203.06
2023-05-14T10:10:25.527Z,1488.78
2023-05-14T10:11:25.341Z,1506.07
2023-05-14T10:12:24.401Z,709.37
2023-05-14T10:13:24.534Z,836.76
2023-05-14T10:14:24.703Z,951.46
2023-05-14T10:15:25.061Z,1534.17
2023-05-14T10:16:25.059Z,1505.75
2023-05-14T10:17:25.156Z,1501.81
2023-05-14T10:18:25.238Z,1503.42
2023-05-14T10:19:24.466Z,1512.31
2023-05-14T10:20:24.934Z,1523.58
2023-05-14T10:21:24.952Z,1549.26
2023-05-14T10:22:24.758Z,1383.57
2023-05-14T10:23:24.944Z,1463.11
2023-05-14T10:24:26.018Z,1508.13
2023-05-14T10:25:25.182Z,1509.72
2023-05-14T10:26:24.314Z,1500.99
2023-05-14T10:27:24.575Z,1415.45
2023-05-14T10:28:24.639Z,1543.17
2023-05-14T10:29:24.748Z,1563.54
2023-05-14T10:30:26.202Z,1313.16
2023-05-14T10:31:25.996Z,1538.54
2023-05-14T10:32:25.185Z,1517.76
2023-05-14T10:33:25.417Z,1655.66
2023-05-14T10:34:25.400Z,1608.20
2023-05-14T10:35:24.672Z,895.45
2023-05-14T10:36:24.688Z,820.59
2023-05-14T10:37:24.917Z,1053.03
2023-05-14T10:38:24.940Z,835.62
2023-05-14T10:39:24.075Z,912.06
2023-05-14T10:40:24.701Z,778.92
2023-05-14T10:41:25.305Z,728.41
2023-05-14T10:42:24.548Z,734.12
2023-05-14T10:43:25.610Z,745.19
2023-05-14T10:44:24.899Z,1566.25
2023-05-14T10:45:23.974Z,1596.48
2023-05-14T10:46:24.149Z,1588.63
2023-05-14T10:47:24.291Z,1611.77
2023-05-14T10:48:24.447Z,1624.17
2023-05-14T10:49:39.814Z,1638.11
2023-05-14T10:50:25.981Z,1644.45
2023-05-14T10:51:25.861Z,1662.64
2023-05-14T10:52:23.931Z,1672.32
2023-05-14T10:53:25.084Z,1685.06
2023-05-14T10:54:25.187Z,1693.95
2023-05-14T10:55:25.312Z,1704.76
2023-05-14T10:56:24.494Z,1633.27
2023-05-14T10:57:24.608Z,1581.20
2023-05-14T10:58:24.724Z,1602.87
2023-05-14T10:59:23.856Z,1581.15
2023-05-14T11:00:25.131Z,1575.05
2023-05-14T11:01:24.172Z,1579.46
2023-05-14T11:02:24.313Z,1583.91
2023-05-14T11:03:25.328Z,1603.55
2023-05-14T11:04:25.418Z,1700.29
2023-05-14T11:05:25.574Z,1727.03
2023-05-14T11:06:24.675Z,1743.26
2023-05-14T11:07:23.885Z,1770.45
2023-05-14T11:08:27.021Z,1824.98
2023-05-14T11:09:24.125Z,1772.28
2023-05-14T11:10:24.440Z,997.97
2023-05-14T11:11:24.361Z,936.29
2023-05-14T11:12:24.502Z,934.28
2023-05-14T11:13:24.737Z,941.42
2023-05-14T11:14:25.644Z,947.57
2023-05-14T11:15:24.840Z,962.20
2023-05-14T11:16:24.278Z,1636.14
2023-05-14T11:17:25.067Z,1203.07
2023-05-14T11:18:24.209Z,1427.86
2023-05-14T11:19:24.358Z,894.58
2023-05-14T11:20:25.725Z,832.95
2023-05-14T11:21:24.575Z,796.09
2023-05-14T11:22:24.665Z,765.10
2023-05-14T11:23:24.817Z,727.75
2023-05-14T11:24:24.936Z,694.67
2023-05-14T11:25:24.222Z,678.13
2023-05-14T11:26:25.318Z,674.63
2023-05-14T11:27:23.418Z,678.20
2023-05-14T11:28:23.503Z,687.62
2023-05-14T11:29:23.654Z,708.66
2023-05-14T11:30:24.022Z,735.53
2023-05-14T11:31:24.058Z,744.57
2023-05-14T11:32:25.126Z,762.61
2023-05-14T11:33:24.238Z,768.65
2023-05-14T11:34:23.355Z,778.46
2023-05-14T11:35:24.518Z,1136.52
2023-05-14T11:36:23.713Z,871.98
2023-05-14T11:37:23.886Z,1560.14
2023-05-14T11:38:23.972Z,1152.25
2023-05-14T11:39:24.134Z,1475.35
2023-05-14T11:40:23.474Z,929.71
2023-05-14T11:41:23.567Z,990.20
2023-05-14T11:42:23.492Z,1519.30
2023-05-14T11:43:23.821Z,1678.71
2023-05-14T11:44:23.787Z,1768.13
2023-05-14T11:45:23.952Z,1667.84
2023-05-14T11:46:25.013Z,1511.52
2023-05-14T11:47:24.071Z,1744.00
2023-05-14T11:48:23.226Z,1813.70
2023-05-14T11:49:23.429Z,1764.24
2023-05-14T11:50:24.819Z,1798.56
2023-05-14T11:51:24.581Z,1631.50
2023-05-14T11:52:23.716Z,1074.27
2023-05-14T11:53:23.847Z,1007.56
2023-05-14T11:54:24.036Z,1110.98
2023-05-14T11:55:23.095Z,1040.00
2023-05-14T11:56:23.211Z,881.88
2023-05-14T11:57:24.277Z,857.29
2023-05-14T11:58:23.471Z,924.02
2023-05-14T11:59:23.596Z,847.29
2023-05-14T12:00:24.070Z,811.04
2023-05-14T12:01:24.811Z,801.32
2023-05-14T12:02:24.074Z,812.43
2023-05-14T12:03:23.342Z,886.14
2023-05-14T12:04:23.242Z,960.11
2023-05-14T12:05:23.336Z,956.88
2023-05-14T12:06:23.534Z,814.65
2023-05-14T12:07:23.620Z,825.90
2023-05-14T12:08:23.766Z,1212.01
2023-05-14T12:09:22.857Z,887.98
2023-05-14T12:10:23.182Z,805.10
2023-05-14T12:11:23.093Z,866.07
2023-05-14T12:12:23.320Z,784.97
2023-05-14T12:13:23.484Z,768.55
2023-05-14T12:14:23.539Z,765.87
2023-05-14T12:15:23.733Z,767.71
2023-05-14T12:16:22.907Z,773.32
2023-05-14T12:17:23.018Z,781.45
2023-05-14T12:18:24.990Z,795.23
2023-05-14T12:19:23.349Z,821.79
2023-05-14T12:20:23.648Z,864.56
2023-05-14T12:21:23.525Z,837.14
2023-05-14T12:22:22.665Z,811.08
2023-05-14T12:23:22.814Z,800.45
2023-05-14T12:24:23.064Z,808.68
2023-05-14T12:25:23.158Z,818.55
2023-05-14T12:26:23.321Z,792.12
2023-05-14T12:27:23.489Z,789.40
2023-05-14T12:28:22.560Z,808.73
2023-05-14T12:29:23.659Z,839.69
2023-05-14T12:30:23.020Z,870.66
2023-05-14T12:31:23.034Z,907.25
2023-05-14T12:32:24.130Z,931.65
2023-05-14T12:33:24.303Z,944.14
2023-05-14T12:34:23.462Z,942.49
2023-05-14T12:35:23.143Z,949.85
2023-05-14T12:36:22.857Z,961.89
2023-05-14T12:37:22.901Z,967.31
2023-05-14T12:38:24.009Z,929.71